Search for airport 
image banner adimage banner adimage banner ad
image banner ad

0PA5 - Fisher

Located in Franklin, United States

ICAO - 0PA5, IATA -

Data provided by Airmate  

General information

Coordinates: N41°29'40" W79°49'51"
Elevation is 1500 feet MSL.
Magnetic variation is -08° East
View others Airports in Pennsylvania

Operational data

Special qualification required
Current time UTC:
Current local time:
Weather at : KFKL - Venango Rgnl ( 13 km )
METAR: KFKL 182256Z AUTO 20003KT 10SM CLR 24/06 A3029 RMK AO2 SLP257 T02390061
TAF: KFKL 181726Z 1818/1918 00000KT P6SM SCT050 FM182300 00000KT P6SM SKC FM191500 16004KT P6SM SCT040
View NOTAMs / SUP AIP / TFR affecting this airport [VIEW]
Communications frequencies: [VIEW]

Runways:

RWY identifierQFULength (ft)Width (ft)SurfaceLDA (ft)
102550125GRASS
282550125GRASS

Airport contact information

Address: Franklin United States

Satellite view of 0PA5